Impacts METAR Board
IDs:

KATL - Atlanta/Hartsfield-J, GA, US

Updated at: 2100 UTC 06 Dec 2019
Potential Impact None Slight Moderate High
Time 06/09Z 06/10Z 06/11Z 06/12Z 06/13Z 06/14Z 06/15Z 06/16Z 06/17Z 06/18Z 06/19Z 06/20Z 06/21Z
Temp49 48 47 48 49 50 52 53 56 59 60 59 58
Dewpt31 30 32 32 32 32 31 32 33 33 33 33 34
Altim30.16 30.18 30.18 30.19 30.19 30.20 30.22 30.21 30.17 30.18 30.14 30.14 30.13
VIS10 10 10 10 10 10 10 10 10 10 10 10 10
CIG110 120 120 170 100 120 120 80 100 250 250 90 75
CoverBKNBKNBKNBKNBKNBKNOVCOVCOVCBKNBKNOVCOVC
FltCatVFRVFRVFRVFRVFRVFRVFRVFRVFRVFRVFRVFRVFR
WX--------------------------
WDir0000000160100200200230190
WSpd0 0 0 0 0 0 0 3 4 4 8 7 4
WGst-- -- -- -- -- -- -- -- -- -- -- -- --
Raw hourly METARs
KATL 060852Z 00000KT 10SM FEW030 BKN110 09/M01 A3016 RMK AO2 SLP213 T00941006 58003 $
KATL 060952Z 00000KT 10SM FEW035 BKN120 09/M01 A3018 RMK AO2 SLP218 T00891011 $
KATL 061052Z 00000KT 10SM FEW030 BKN120 BKN170 08/00 A3018 RMK AO2 SLP221 T00830000 $
KATL 061152Z 00000KT 10SM FEW030 SCT120 BKN170 09/00 A3019 RMK AO2 SLP223 T00890000 10106 20078 51008
KATL 061252Z 00000KT 10SM FEW080 BKN100 BKN150 09/00 A3019 RMK AO2 SLP224 VIRGA E AND NW T00940000
KATL 061352Z 00000KT 10SM FEW090 BKN120 BKN160 10/00 A3020 RMK AO2 SLP227 VIRGA OHD AND SE-SW T01000000
KATL 061452Z 00000KT 10SM FEW090 BKN120 OVC150 11/M01 A3022 RMK AO2 SLP235 VIRGA S-W-N BINOVC DSNT SE T01111006 53011
KATL 061552Z 16003KT 10SM BKN080 BKN100 OVC120 12/00 A3021 RMK AO2 SLP232 VIRGA OHD ALQDS T01170000
KATL 061652Z 10004KT 10SM FEW080 BKN100 OVC120 13/01 A3017 RMK AO2 PRESFR SLP218 VIRGA OHD-NW-N-NE T01330006
KATL 061752Z 20004KT 10SM FEW100 SCT120 SCT180 BKN250 15/01 A3018 RMK AO2 SLP219 VIRGA N-NE NW-N T01500006 10150 20089 55015
KATL 061852Z 20008KT 10SM FEW100 SCT140 BKN250 16/01 A3014 RMK AO2 SLP207 T01560006
KATL 061952Z 23007KT 10SM BKN090 OVC250 15/01 A3014 RMK AO2 SLP207 T01500006
KATL 062052Z 19004KT 10SM SCT050 BKN075 OVC250 14/01 A3013 RMK AO2 SLP204 T01440011 56014



Page loaded:  21:06 UTC  |   01:06 PM Pacific  |   02:06 PM Mountain  |   03:06 PM Central  |   04:06 PM Eastern

 

ADVISORIES

FORECASTS

FORECASTS

OBSERVATIONS

USER TOOLS

ABOUT US